Main page


Airports :

Fujairah, United Arab Emirates

Fujairah International Airport

latitude: 25-06N, longitude: 056-20E, elevation: 28 m

Current weather observation

The report was made 1 hour and 0 minutes ago, at 09:00 UTC
Wind 14 kt from the West with gusts up to 31 kt, varying between Southwest and Northwest
Temperature 33°C
Humidity 16%
Pressure 1009 hPa
Visibility: 6000 m

METAR: OMFJ 180900Z 26014G31KT 230V310 6000 NSC 33/04 Q1009 RMK A2981

Time: 14:00 (10:00 UTC)


The report was made 5 hours and 0 minutes ago, at 05:00 UTC
Forecast valid from 18 at 06 UTC to 19 at 12 UTC
Wind 13 kt from the West
Visibility: 7000 m
Probability 30%
from 18 at 06 UTC to 18 at 16 UTC
Wind 14 kt from the West with gusts up to 25 kt
Visibility: 4000 m
Blowing dust

TAF: OMFJ 180500Z 1806/1912 28013KT 7000 NSC PROB30 1806/1816 28014G25KT 4000 BLDU

Weather observations and forecasts of more than 4000 airports (METAR and TAF reports).

The available stations are represented by yellow and red dots on the map.

Hover mouse over dot to see the name of the station.

Then click to see weather observations and forecasts.

To change the map : click on the green buttons with a black cross to zoom in, on the green button with a dash to zoom out, or on the green arrows for adjacent maps.